Sudbury, Canada
Current Conditions -  °F | °C
As of 9:00 AM on Monday 24 Nov 2014 (Local Time) from CYSB Reporting Station
Light Rain Light Rain  
Wind Chill: 37°   Ceiling: 200
Heat Index: 43°   Visibility: 0.5mi
Dew Point: 43°   Wind: 12mph
Humidity: 100%   Direction: 140°SE
Pressure: 28.9"   Gusts: NA
Location:  46.49°N, 80.99°W
Report Text: CYSB 241400Z 14010KT 1/2SM R22/P6000FT/N -RA FG VV002 06/06 A2890 RMK FG8 SLP795 DENSITY ALT 1500FT
Loading
Personal Weather Stations






























Interactive Weather Map New forecast layout! Learn more

10-Day Weather Forecast

Advertisements
Track Severe Weather on mobile